AirNav   Bose ProFlight Series 2 Headset
 
 1381 users online  

4PN3 Gallatin Fuel Heliport
Masontown, Pennsylvania, USA

GOING TO MASONTOWN?


FAA INFORMATION EFFECTIVE 02 JANUARY 2020

Location

FAA Identifier: 4PN3
Lat/Long: 39-51-59.2740N 079-57-02.1970W
39-51.987900N 079-57.036617W
39.8664650,-79.9506103
(estimated)
Elevation: 980 ft. / 299 m (estimated)
Variation: 07W (1985)
From city: 2 miles NW of MASONTOWN, PA
Time zone: UTC -5 (UTC -4 during Daylight Saving Time)
Zip code: 15320

Heliport Operations

Heliport use: Private use. Permission required prior to landing
Activation date: 08/1977
Control tower: no
ARTCC: CLEVELAND CENTER
FSS: ALTOONA FLIGHT SERVICE STATION
Attendance: IREG
Wind indicator: yes
Segmented circle: no

Heliport Communications

WX ASOS at MGW (13 nm S): 120.675 (304-296-7103)
WX AWOS-3 at VVS (15 nm E): 133.325 (724-626-8745)

Nearby radio navigation aids

VOR radial/distance  VOR name  Freq  Var
MGWr352/19.0MORGANTOWN VOR/DME111.6005W
AGCr179/25.1ALLEGHENY VOR/DME110.0009W
IHDr263/28.0INDIAN HEAD VORTAC108.2006W
HLGr137/36.9WHEELING VOR/DME112.2007W
CKBr026/39.6CLARKSBURG VOR/DME112.6004W

 
NDB name  Hdg/Dist  Freq  Var  ID
CAMOR272/9.529908WVV ...- ...-

Heliport Services

Airframe service: NONE
Powerplant service: NONE
Bottled oxygen: NONE
Bulk oxygen: NONE

Runway Information

Helipad H1

Dimensions: 60 x 50 ft. / 18 x 15 m
Surface: asphalt, in fair condition
Operational restrictions: HELIPAD APCH EAST TO WEST.
Latitude: 39-51.987900N
Longitude: 079-57.036617W
Elevation: 980.0 ft.
Traffic pattern: leftleft
Markings: none, in fair condition
Runway end identifier lights: no

Heliport Ownership and Management from official FAA records

Ownership: Privately-owned
Owner: GALLATIN FUEL, INC.
250 W MAIN
UNIONTOWN, PA 15401
Phone 412-966-7546
Manager: JOHN H. BAILY
PO BOX 355
CARMICHAELS, PA 15320
Phone 412-966-5435

Heliport Operational Statistics

Aircraft based on the field: 1
Helicopters: 1
    

Additional Remarks

FOR CD CTC CLARKSBURG APCH AT 304-842-2011, WHEN APCH CLSD CTC CLEVELAND ARTCC AT 440-774-0490.

Instrument Procedures

There are no published instrument procedures at 4PN3.

Some nearby airports with instrument procedures:

KWAY - Greene County Airport (9 nm W)
KMGW - Morgantown Municipal Airport-Walter L. Bill Hart Field (13 nm S)
KVVS - Joseph A Hardy Connellsville Airport (15 nm E)
KFWQ - Rostraver Airport (21 nm N)
KAFJ - Washington County Airport (22 nm NW)
 
Loc | Ops | Rwys | IFR | FBO | Links
Com | Nav | Svcs | Stats | Notes
Area around 4PN3 (Gallatin Fuel Heliport)
 
Road maps at: MapQuest Bing Google
 
Aerial photo
No photo
 
Sectional chart

 
Airport distance calculator
Flying to Gallatin Fuel Heliport? Find the distance to fly.

From to 4PN3

Sunrise and sunset
Times for 23-Jan-2020
 Local
(UTC-5)
 Zulu
(UTC)
Morning civil twilight07:0712:07
Sunrise07:3612:36
Sunset17:2722:27
Evening civil twilight17:5622:56

Current date and time
Zulu (UTC)  23-Jan-2020 23:40:40
Local (UTC-5)  23-Jan-2020 18:40:40
 
METAR
KMGW 
13nm S 
232253Z 00000KT 10SM CLR 08/M11 A3020 RMK AO2 SLP238 T00781111
KAFJ 
21nm NW 
232256Z AUTO 00000KT 10SM BKN110 04/M06 A3023 RMK AO2 SLP248 T00441061 PWINO $
KP53 
21nm N 
232256Z AUTO 08003KT 01/M01 A3013 RMK AO1 SLP213 P0002 T00061006
TAF
KMGW 
13nm S 
231744Z 2318/2418 VRB03KT P6SM BKN150 FM241500 13010G16KT P6SM VCSH BKN050 WS020/17035KT
NOTAMs
Click for the latest NOTAMs
NOTAMs are issued by the DoD/FAA and will open in a separate window not controlled by AirNav.

 

 
 

Would you like to see your business listed on this page?

 If your business provides an interesting product or service to pilots, flight crews, aircraft, or users of the Gallatin Fuel Heliport, you should consider listing it here.  To start the listing process, click on the button below
 
Add a business
 

Other Pages about Gallatin Fuel Heliport

Update a link
 
Copyright © AirNav, LLC. All rights reserved. Privacy Policy  Contact